sensor_id;sensor_type;location;lat;lon;timestamp;pressure;altitude;pressure_sealevel;temperature;humidity
12897;BME280;6516;35.028;32.372;2023-03-20T00:01:09;99390.41;;;11.85;89.65
12897;BME280;6516;35.028;32.372;2023-03-20T00:03:39;99386.00;;;11.85;89.52
12897;BME280;6516;35.028;32.372;2023-03-20T00:06:13;99388.72;;;11.84;89.59
12897;BME280;6516;35.028;32.372;2023-03-20T00:08:44;99392.13;;;11.86;89.41
12897;BME280;6516;35.028;32.372;2023-03-20T00:11:24;99387.59;;;11.89;88.90
12897;BME280;6516;35.028;32.372;2023-03-20T00:13:56;99376.09;;;11.92;88.67
12897;BME280;6516;35.028;32.372;2023-03-20T00:16:28;99385.63;;;11.96;88.65
12897;BME280;6516;35.028;32.372;2023-03-20T00:18:58;99380.34;;;11.96;88.50
12897;BME280;6516;35.028;32.372;2023-03-20T00:21:25;99381.16;;;11.98;88.46
12897;BME280;6516;35.028;32.372;2023-03-20T00:23:55;99380.34;;;11.96;88.54
12897;BME280;6516;35.028;32.372;2023-03-20T00:26:25;99367.06;;;11.99;88.04
12897;BME280;6516;35.028;32.372;2023-03-20T00:28:54;99364.47;;;11.97;88.28
12897;BME280;6516;35.028;32.372;2023-03-20T00:31:24;99371.47;;;11.98;88.65
12897;BME280;6516;35.028;32.372;2023-03-20T00:33:55;99362.84;;;11.93;88.77
12897;BME280;6516;35.028;32.372;2023-03-20T00:36:23;99357.72;;;11.90;89.03
12897;BME280;6516;35.028;32.372;2023-03-20T00:38:52;99361.88;;;11.96;88.83
12897;BME280;6516;35.028;32.372;2023-03-20T00:41:25;99366.03;;;12.03;88.29
12897;BME280;6516;35.028;32.372;2023-03-20T00:43:55;99374.22;;;11.95;88.14
12897;BME280;6516;35.028;32.372;2023-03-20T00:46:25;99363.22;;;11.83;88.45
12897;BME280;6516;35.028;32.372;2023-03-20T00:48:54;99367.94;;;11.75;89.02
12897;BME280;6516;35.028;32.372;2023-03-20T00:51:22;99368.13;;;11.69;89.13
12897;BME280;6516;35.028;32.372;2023-03-20T00:53:49;99363.94;;;11.63;89.25
12897;BME280;6516;35.028;32.372;2023-03-20T00:56:30;99356.78;;;11.67;89.26
12897;BME280;6516;35.028;32.372;2023-03-20T00:59:00;99356.78;;;11.67;88.94
12897;BME280;6516;35.028;32.372;2023-03-20T01:01:29;99359.50;;;11.64;88.98
12897;BME280;6516;35.028;32.372;2023-03-20T01:03:58;99361.66;;;11.53;89.64
12897;BME280;6516;35.028;32.372;2023-03-20T01:06:25;99357.66;;;11.41;90.41
12897;BME280;6516;35.028;32.372;2023-03-20T01:08:53;99356.03;;;11.37;90.75
12897;BME280;6516;35.028;32.372;2023-03-20T01:11:23;99358.22;;;11.25;91.48
12897;BME280;6516;35.028;32.372;2023-03-20T01:13:52;99349.00;;;11.12;92.27
12897;BME280;6516;35.028;32.372;2023-03-20T01:16:21;99352.81;;;11.01;92.94
12897;BME280;6516;35.028;32.372;2023-03-20T01:18:50;99357.53;;;10.92;93.64
12897;BME280;6516;35.028;32.372;2023-03-20T01:21:19;99360.25;;;10.89;93.92
12897;BME280;6516;35.028;32.372;2023-03-20T01:23:47;99353.44;;;10.83;94.32
12897;BME280;6516;35.028;32.372;2023-03-20T01:26:21;99364.84;;;10.82;94.59
12897;BME280;6516;35.028;32.372;2023-03-20T01:28:55;99370.13;;;10.82;94.18
12897;BME280;6516;35.028;32.372;2023-03-20T01:31:22;99370.13;;;10.82;94.45
12897;BME280;6516;35.028;32.372;2023-03-20T01:33:50;99366.34;;;10.91;94.03
12897;BME280;6516;35.028;32.372;2023-03-20T01:36:20;99350.28;;;10.71;94.66
12897;BME280;6516;35.028;32.372;2023-03-20T01:38:53;99354.72;;;10.70;94.78
12897;BME280;6516;35.028;32.372;2023-03-20T01:41:23;99358.31;;;10.68;94.98
12897;BME280;6516;35.028;32.372;2023-03-20T01:43:52;99363.41;;;10.72;94.87
12897;BME280;6516;35.028;32.372;2023-03-20T01:46:23;99361.47;;;10.79;94.16
12897;BME280;6516;35.028;32.372;2023-03-20T01:49:00;99373.06;;;10.72;94.55
12897;BME280;6516;35.028;32.372;2023-03-20T01:51:36;99371.41;;;10.69;94.35
12897;BME280;6516;35.028;32.372;2023-03-20T01:54:06;99375.06;;;10.65;94.62
12897;BME280;6516;35.028;32.372;2023-03-20T01:56:38;99378.44;;;10.69;94.45
12897;BME280;6516;35.028;32.372;2023-03-20T01:59:13;99371.00;;;10.83;93.31
12897;BME280;6516;35.028;32.372;2023-03-20T02:01:45;99381.22;;;10.92;93.01
12897;BME280;6516;35.028;32.372;2023-03-20T02:04:14;99383.81;;;10.93;92.93
12897;BME280;6516;35.028;32.372;2023-03-20T02:06:43;99383.56;;;11.01;92.90
12897;BME280;6516;35.028;32.372;2023-03-20T02:09:12;99373.72;;;11.07;92.04
12897;BME280;6516;35.028;32.372;2023-03-20T02:11:41;99372.13;;;11.02;92.54
12897;BME280;6516;35.028;32.372;2023-03-20T02:14:10;99374.78;;;11.00;92.49
12897;BME280;6516;35.028;32.372;2023-03-20T02:16:38;99374.72;;;11.03;91.90
12897;BME280;6516;35.028;32.372;2023-03-20T02:19:16;99375.50;;;11.05;91.96
12897;BME280;6516;35.028;32.372;2023-03-20T02:22:24;99379.16;;;11.01;92.38
12897;BME280;6516;35.028;32.372;2023-03-20T02:28:55;99387.72;;;11.08;91.73
12897;BME280;6516;35.028;32.372;2023-03-20T02:32:10;99391.47;;;11.01;92.00
12897;BME280;6516;35.028;32.372;2023-03-20T02:39:05;99410.16;;;10.93;92.86
12897;BME280;6516;35.028;32.372;2023-03-20T02:42:06;99418.09;;;10.92;92.91
12897;BME280;6516;35.028;32.372;2023-03-20T02:44:43;99414.50;;;10.94;92.58
12897;BME280;6516;35.028;32.372;2023-03-20T02:47:20;99417.34;;;10.88;93.51
12897;BME280;6516;35.028;32.372;2023-03-20T02:49:55;99412.91;;;10.89;93.20
12897;BME280;6516;35.028;32.372;2023-03-20T02:52:32;99413.72;;;10.93;93.39
12897;BME280;6516;35.028;32.372;2023-03-20T02:55:12;99418.78;;;10.98;92.64
12897;BME280;6516;35.028;32.372;2023-03-20T02:57:49;99422.25;;;10.99;93.10
12897;BME280;6516;35.028;32.372;2023-03-20T03:00:25;99427.72;;;10.93;93.29
12897;BME280;6516;35.028;32.372;2023-03-20T03:03:00;99423.44;;;10.89;93.49
12897;BME280;6516;35.028;32.372;2023-03-20T03:05:36;99427.16;;;10.83;93.95
12897;BME280;6516;35.028;32.372;2023-03-20T03:08:08;99423.78;;;10.78;94.68
12897;BME280;6516;35.028;32.372;2023-03-20T03:10:43;99429.22;;;10.72;95.04
12897;BME280;6516;35.028;32.372;2023-03-20T03:13:15;99426.75;;;10.68;95.25
12897;BME280;6516;35.028;32.372;2023-03-20T03:15:47;99423.25;;;10.67;94.96
12897;BME280;6516;35.028;32.372;2023-03-20T03:18:19;99428.31;;;10.44;96.49
12897;BME280;6516;35.028;32.372;2023-03-20T03:20:50;99429.97;;;10.48;96.66
12897;BME280;6516;35.028;32.372;2023-03-20T03:23:25;99432.59;;;10.48;96.15
12897;BME280;6516;35.028;32.372;2023-03-20T03:25:58;99440.03;;;10.34;96.66
12897;BME280;6516;35.028;32.372;2023-03-20T03:28:30;99442.94;;;10.24;97.50
12897;BME280;6516;35.028;32.372;2023-03-20T03:31:03;99445.78;;;10.16;98.15
12897;BME280;6516;35.028;32.372;2023-03-20T03:33:33;99447.47;;;10.19;98.35
12897;BME280;6516;35.028;32.372;2023-03-20T03:36:08;99449.88;;;10.26;97.72
12897;BME280;6516;35.028;32.372;2023-03-20T03:38:43;99447.47;;;10.19;97.91
12897;BME280;6516;35.028;32.372;2023-03-20T03:41:24;99445.19;;;10.05;98.26
12897;BME280;6516;35.028;32.372;2023-03-20T03:44:00;99447.69;;;10.11;98.56
12897;BME280;6516;35.028;32.372;2023-03-20T03:46:39;99454.84;;;10.06;99.11
12897;BME280;6516;35.028;32.372;2023-03-20T03:49:14;99452.03;;;10.12;98.83
12897;BME280;6516;35.028;32.372;2023-03-20T03:51:48;99449.50;;;10.08;98.25
12897;BME280;6516;35.028;32.372;2023-03-20T03:54:21;99454.28;;;9.92;98.32
12897;BME280;6516;35.028;32.372;2023-03-20T03:56:52;99457.00;;;9.89;99.01
12897;BME280;6516;35.028;32.372;2023-03-20T03:59:24;99460.47;;;9.90;99.40
12897;BME280;6516;35.028;32.372;2023-03-20T04:01:57;99459.50;;;9.94;99.21
12897;BME280;6516;35.028;32.372;2023-03-20T04:04:27;99452.31;;;10.00;98.46
12897;BME280;6516;35.028;32.372;2023-03-20T04:06:56;99466.16;;;10.08;97.96
12897;BME280;6516;35.028;32.372;2023-03-20T04:09:24;99464.34;;;10.10;97.58
12897;BME280;6516;35.028;32.372;2023-03-20T04:11:53;99474.03;;;10.10;97.43
12897;BME280;6516;35.028;32.372;2023-03-20T04:14:21;99488.19;;;10.03;97.73
12897;BME280;6516;35.028;32.372;2023-03-20T04:16:49;99489.22;;;9.97;98.21
12897;BME280;6516;35.028;32.372;2023-03-20T04:19:16;99493.69;;;9.94;98.56
12897;BME280;6516;35.028;32.372;2023-03-20T04:21:44;99503.19;;;9.99;99.18
12897;BME280;6516;35.028;32.372;2023-03-20T04:24:12;99502.00;;;10.12;98.70
12897;BME280;6516;35.028;32.372;2023-03-20T04:26:40;99506.94;;;10.24;98.07
12897;BME280;6516;35.028;32.372;2023-03-20T04:29:09;99514.38;;;10.41;97.17
12897;BME280;6516;35.028;32.372;2023-03-20T04:31:38;99515.59;;;10.60;96.98
12897;BME280;6516;35.028;32.372;2023-03-20T04:34:05;99512.44;;;10.78;97.13
12897;BME280;6516;35.028;32.372;2023-03-20T04:36:33;99522.59;;;10.90;97.08
12897;BME280;6516;35.028;32.372;2023-03-20T04:39:01;99520.34;;;11.07;96.54
12897;BME280;6516;35.028;32.372;2023-03-20T04:41:29;99531.47;;;11.17;96.31
12897;BME280;6516;35.028;32.372;2023-03-20T04:43:56;99524.22;;;11.25;96.27
12897;BME280;6516;35.028;32.372;2023-03-20T04:46:25;99531.72;;;11.37;96.81
12897;BME280;6516;35.028;32.372;2023-03-20T04:48:53;99536.66;;;11.47;96.58
12897;BME280;6516;35.028;32.372;2023-03-20T04:51:21;99535.97;;;11.70;95.99
12897;BME280;6516;35.028;32.372;2023-03-20T04:53:49;99532.28;;;12.01;94.67
12897;BME280;6516;35.028;32.372;2023-03-20T04:56:16;99536.13;;;12.42;94.29
12897;BME280;6516;35.028;32.372;2023-03-20T04:58:44;99529.44;;;12.81;94.09
12897;BME280;6516;35.028;32.372;2023-03-20T05:01:14;99530.28;;;13.06;92.84
12897;BME280;6516;35.028;32.372;2023-03-20T05:03:44;99526.88;;;13.25;90.78
12897;BME280;6516;35.028;32.372;2023-03-20T05:06:11;99534.28;;;13.39;88.90
12897;BME280;6516;35.028;32.372;2023-03-20T05:08:39;99537.34;;;13.50;86.36
12897;BME280;6516;35.028;32.372;2023-03-20T05:11:07;99541.06;;;13.67;87.51
12897;BME280;6516;35.028;32.372;2023-03-20T05:13:35;99539.56;;;13.82;86.14
12897;BME280;6516;35.028;32.372;2023-03-20T05:16:02;99539.88;;;13.96;85.00
12897;BME280;6516;35.028;32.372;2023-03-20T05:18:31;99542.69;;;14.13;83.40
12897;BME280;6516;35.028;32.372;2023-03-20T05:21:00;99546.47;;;14.29;82.08
12897;BME280;6516;35.028;32.372;2023-03-20T05:23:29;99549.16;;;14.47;81.62
12897;BME280;6516;35.028;32.372;2023-03-20T05:25:56;99547.44;;;14.66;80.94
12897;BME280;6516;35.028;32.372;2023-03-20T05:28:24;99552.06;;;14.81;75.24
12897;BME280;6516;35.028;32.372;2023-03-20T05:30:52;99552.03;;;15.01;73.59
12897;BME280;6516;35.028;32.372;2023-03-20T05:33:20;99553.66;;;15.24;73.11
12897;BME280;6516;35.028;32.372;2023-03-20T05:35:48;99557.97;;;15.45;72.23
12897;BME280;6516;35.028;32.372;2023-03-20T05:38:17;99561.41;;;15.65;71.50
12897;BME280;6516;35.028;32.372;2023-03-20T05:40:47;99557.41;;;15.92;68.42
12897;BME280;6516;35.028;32.372;2023-03-20T05:43:15;99554.25;;;16.03;65.91
12897;BME280;6516;35.028;32.372;2023-03-20T05:45:43;99558.44;;;16.25;67.09
12897;BME280;6516;35.028;32.372;2023-03-20T05:48:10;99559.19;;;16.46;67.30
12897;BME280;6516;35.028;32.372;2023-03-20T05:50:38;99559.34;;;16.60;63.89
12897;BME280;6516;35.028;32.372;2023-03-20T05:53:06;99559.75;;;16.85;65.08
12897;BME280;6516;35.028;32.372;2023-03-20T05:55:35;99556.22;;;17.01;64.93
12897;BME280;6516;35.028;32.372;2023-03-20T05:58:04;99555.94;;;17.23;63.71
12897;BME280;6516;35.028;32.372;2023-03-20T06:00:32;99555.38;;;17.49;63.49
12897;BME280;6516;35.028;32.372;2023-03-20T06:02:59;99557.72;;;17.55;60.93
12897;BME280;6516;35.028;32.372;2023-03-20T06:05:27;99564.50;;;17.76;60.75
12897;BME280;6516;35.028;32.372;2023-03-20T06:07:55;99568.97;;;17.91;60.88
12897;BME280;6516;35.028;32.372;2023-03-20T06:10:23;99568.78;;;18.09;61.14
12897;BME280;6516;35.028;32.372;2023-03-20T06:12:53;99570.47;;;18.26;61.45
12897;BME280;6516;35.028;32.372;2023-03-20T06:15:21;99573.03;;;18.27;58.75
12897;BME280;6516;35.028;32.372;2023-03-20T06:17:49;99575.53;;;18.46;58.33
12897;BME280;6516;35.028;32.372;2023-03-20T06:20:17;99584.31;;;18.62;59.31
12897;BME280;6516;35.028;32.372;2023-03-20T06:22:45;99572.56;;;18.80;58.83
12897;BME280;6516;35.028;32.372;2023-03-20T06:25:13;99576.38;;;18.90;57.48
12897;BME280;6516;35.028;32.372;2023-03-20T06:27:41;99577.09;;;19.07;57.51
12897;BME280;6516;35.028;32.372;2023-03-20T06:30:12;99570.63;;;19.11;56.75
12897;BME280;6516;35.028;32.372;2023-03-20T06:32:40;99572.91;;;19.17;56.40
12897;BME280;6516;35.028;32.372;2023-03-20T06:35:09;99577.78;;;19.39;55.54
12897;BME280;6516;35.028;32.372;2023-03-20T06:37:38;99574.53;;;19.48;56.07
12897;BME280;6516;35.028;32.372;2023-03-20T06:40:07;99572.16;;;19.58;54.93
12897;BME280;6516;35.028;32.372;2023-03-20T06:42:36;99575.31;;;19.64;54.18
12897;BME280;6516;35.028;32.372;2023-03-20T06:45:04;99584.41;;;19.88;55.36
12897;BME280;6516;35.028;32.372;2023-03-20T06:47:35;99575.06;;;19.95;54.58
12897;BME280;6516;35.028;32.372;2023-03-20T06:50:03;99582.97;;;20.11;53.97
12897;BME280;6516;35.028;32.372;2023-03-20T06:52:32;99583.38;;;20.17;54.59
12897;BME280;6516;35.028;32.372;2023-03-20T06:55:00;99596.94;;;20.28;53.83
12897;BME280;6516;35.028;32.372;2023-03-20T06:57:28;99598.38;;;20.46;52.67
12897;BME280;6516;35.028;32.372;2023-03-20T06:59:55;99595.63;;;20.60;52.41
12897;BME280;6516;35.028;32.372;2023-03-20T07:02:23;99598.50;;;20.57;50.97
12897;BME280;6516;35.028;32.372;2023-03-20T07:04:53;99603.66;;;20.60;51.61
12897;BME280;6516;35.028;32.372;2023-03-20T07:07:20;99610.78;;;20.86;51.22
12897;BME280;6516;35.028;32.372;2023-03-20T07:09:49;99605.97;;;20.79;49.78
12897;BME280;6516;35.028;32.372;2023-03-20T07:12:17;99614.25;;;21.01;49.87
12897;BME280;6516;35.028;32.372;2023-03-20T07:14:45;99625.63;;;21.04;49.53
12897;BME280;6516;35.028;32.372;2023-03-20T07:17:13;99627.88;;;21.23;48.47
12897;BME280;6516;35.028;32.372;2023-03-20T07:19:41;99628.84;;;21.34;48.91
12897;BME280;6516;35.028;32.372;2023-03-20T07:22:18;99627.47;;;21.41;48.22
12897;BME280;6516;35.028;32.372;2023-03-20T07:24:48;99631.94;;;21.41;46.70
12897;BME280;6516;35.028;32.372;2023-03-20T07:27:16;99623.94;;;21.28;45.23
12897;BME280;6516;35.028;32.372;2023-03-20T07:29:44;99633.91;;;21.39;46.33
12897;BME280;6516;35.028;32.372;2023-03-20T07:32:12;99640.41;;;21.47;46.85
12897;BME280;6516;35.028;32.372;2023-03-20T07:34:40;99638.50;;;21.49;46.96
12897;BME280;6516;35.028;32.372;2023-03-20T07:37:08;99641.38;;;21.59;47.18
12897;BME280;6516;35.028;32.372;2023-03-20T07:39:37;99636.16;;;21.70;45.83
12897;BME280;6516;35.028;32.372;2023-03-20T07:42:05;99636.44;;;21.90;47.07
12897;BME280;6516;35.028;32.372;2023-03-20T07:44:33;99630.69;;;22.07;46.88
12897;BME280;6516;35.028;32.372;2023-03-20T07:47:01;99636.22;;;22.29;47.00
12897;BME280;6516;35.028;32.372;2023-03-20T07:49:30;99623.81;;;22.39;45.31
12897;BME280;6516;35.028;32.372;2023-03-20T07:51:59;99629.72;;;22.21;45.45
12897;BME280;6516;35.028;32.372;2023-03-20T07:54:27;99627.53;;;22.26;44.44
12897;BME280;6516;35.028;32.372;2023-03-20T07:56:56;99628.69;;;22.34;44.97
12897;BME280;6516;35.028;32.372;2023-03-20T07:59:24;99630.78;;;22.54;44.99
12897;BME280;6516;35.028;32.372;2023-03-20T08:01:51;99631.41;;;22.81;44.26
12897;BME280;6516;35.028;32.372;2023-03-20T08:04:19;99632.00;;;22.85;42.11
12897;BME280;6516;35.028;32.372;2023-03-20T08:06:47;99634.53;;;23.10;42.75
12897;BME280;6516;35.028;32.372;2023-03-20T08:09:15;99636.19;;;23.23;42.43
12897;BME280;6516;35.028;32.372;2023-03-20T08:11:43;99639.75;;;23.35;41.95
12897;BME280;6516;35.028;32.372;2023-03-20T08:14:13;99633.44;;;23.47;43.09
12897;BME280;6516;35.028;32.372;2023-03-20T08:16:41;99636.00;;;23.59;40.80
12897;BME280;6516;35.028;32.372;2023-03-20T08:19:08;99636.34;;;23.77;40.89
12897;BME280;6516;35.028;32.372;2023-03-20T08:21:42;99633.06;;;23.73;41.29
12897;BME280;6516;35.028;32.372;2023-03-20T08:24:10;99632.81;;;23.54;40.67
12897;BME280;6516;35.028;32.372;2023-03-20T08:26:37;99636.94;;;23.36;42.28
12897;BME280;6516;35.028;32.372;2023-03-20T08:29:05;99644.63;;;23.30;41.08
12897;BME280;6516;35.028;32.372;2023-03-20T08:31:35;99639.16;;;23.31;41.87
12897;BME280;6516;35.028;32.372;2023-03-20T08:34:02;99643.47;;;23.56;40.38
12897;BME280;6516;35.028;32.372;2023-03-20T08:36:30;99637.22;;;23.66;41.52
12897;BME280;6516;35.028;32.372;2023-03-20T08:38:58;99638.19;;;23.65;40.68
12897;BME280;6516;35.028;32.372;2023-03-20T08:41:26;99645.50;;;23.52;39.81
12897;BME280;6516;35.028;32.372;2023-03-20T08:43:54;99638.34;;;23.75;40.13
12897;BME280;6516;35.028;32.372;2023-03-20T08:46:22;99649.22;;;23.62;39.63
12897;BME280;6516;35.028;32.372;2023-03-20T08:48:51;99640.25;;;23.73;41.41
12897;BME280;6516;35.028;32.372;2023-03-20T08:51:19;99652.88;;;23.72;41.59
12897;BME280;6516;35.028;32.372;2023-03-20T08:53:47;99652.88;;;23.83;39.84
12897;BME280;6516;35.028;32.372;2023-03-20T08:56:15;99657.91;;;23.99;40.79
12897;BME280;6516;35.028;32.372;2023-03-20T08:58:42;99649.72;;;23.89;41.26
12897;BME280;6516;35.028;32.372;2023-03-20T09:01:10;99657.66;;;24.02;41.74
12897;BME280;6516;35.028;32.372;2023-03-20T09:03:40;99653.41;;;23.99;40.96
12897;BME280;6516;35.028;32.372;2023-03-20T09:06:10;99657.31;;;23.95;41.58
12897;BME280;6516;35.028;32.372;2023-03-20T09:08:37;99654.72;;;23.94;39.48
12897;BME280;6516;35.028;32.372;2023-03-20T09:11:06;99654.97;;;24.13;41.28
12897;BME280;6516;35.028;32.372;2023-03-20T09:13:34;99647.59;;;23.82;38.22
12897;BME280;6516;35.028;32.372;2023-03-20T09:16:02;99660.06;;;23.72;38.42
12897;BME280;6516;35.028;32.372;2023-03-20T09:18:31;99651.44;;;23.90;37.98
12897;BME280;6516;35.028;32.372;2023-03-20T09:20:59;99655.56;;;23.72;38.36
12897;BME280;6516;35.028;32.372;2023-03-20T09:23:28;99663.63;;;23.72;39.29
12897;BME280;6516;35.028;32.372;2023-03-20T09:25:59;99665.41;;;23.50;40.33
12897;BME280;6516;35.028;32.372;2023-03-20T09:28:27;99659.09;;;23.62;39.94
12897;BME280;6516;35.028;32.372;2023-03-20T09:30:55;99664.81;;;23.35;40.26
12897;BME280;6516;35.028;32.372;2023-03-20T09:33:24;99662.34;;;23.32;40.88
12897;BME280;6516;35.028;32.372;2023-03-20T09:35:52;99658.78;;;23.32;41.75
12897;BME280;6516;35.028;32.372;2023-03-20T09:38:20;99659.78;;;23.31;41.85
12897;BME280;6516;35.028;32.372;2023-03-20T09:40:54;99658.09;;;23.52;40.68
12897;BME280;6516;35.028;32.372;2023-03-20T09:43:37;99657.00;;;23.54;41.73
12897;BME280;6516;35.028;32.372;2023-03-20T09:46:37;99661.69;;;23.85;42.48
12897;BME280;6516;35.028;32.372;2023-03-20T09:49:24;99664.13;;;23.77;41.24
12897;BME280;6516;35.028;32.372;2023-03-20T09:51:59;99667.78;;;23.76;40.97
12897;BME280;6516;35.028;32.372;2023-03-20T09:54:28;99674.13;;;23.64;42.00
12897;BME280;6516;35.028;32.372;2023-03-20T09:57:02;99674.63;;;23.69;42.37
12897;BME280;6516;35.028;32.372;2023-03-20T09:59:33;99670.22;;;23.68;43.11
12897;BME280;6516;35.028;32.372;2023-03-20T10:02:06;99675.22;;;23.62;43.40
12897;BME280;6516;35.028;32.372;2023-03-20T10:04:39;99671.31;;;23.66;43.48
12897;BME280;6516;35.028;32.372;2023-03-20T10:07:12;99682.78;;;23.57;43.95
12897;BME280;6516;35.028;32.372;2023-03-20T10:09:43;99673.06;;;23.78;42.96
12897;BME280;6516;35.028;32.372;2023-03-20T10:12:37;99676.47;;;23.69;44.59
12897;BME280;6516;35.028;32.372;2023-03-20T10:15:18;99671.09;;;23.69;44.20
12897;BME280;6516;35.028;32.372;2023-03-20T10:17:57;99673.13;;;23.54;41.45
12897;BME280;6516;35.028;32.372;2023-03-20T10:20:33;99678.25;;;23.35;42.32
12897;BME280;6516;35.028;32.372;2023-03-20T10:23:06;99676.25;;;23.26;43.79
12897;BME280;6516;35.028;32.372;2023-03-20T10:25:41;99672.72;;;23.26;43.98
12897;BME280;6516;35.028;32.372;2023-03-20T10:28:16;99679.13;;;23.12;44.39
12897;BME280;6516;35.028;32.372;2023-03-20T10:30:55;99681.13;;;22.98;45.24
12897;BME280;6516;35.028;32.372;2023-03-20T10:33:39;99681.06;;;22.87;44.69
12897;BME280;6516;35.028;32.372;2023-03-20T10:36:24;99674.25;;;22.59;44.19
12897;BME280;6516;35.028;32.372;2023-03-20T10:39:09;99679.22;;;22.76;45.11
12897;BME280;6516;35.028;32.372;2023-03-20T10:41:46;99669.94;;;22.80;44.20
12897;BME280;6516;35.028;32.372;2023-03-20T10:44:26;99660.13;;;22.68;40.85
12897;BME280;6516;35.028;32.372;2023-03-20T10:46:59;99658.66;;;22.64;40.77
12897;BME280;6516;35.028;32.372;2023-03-20T10:49:33;99658.19;;;22.70;41.17
12897;BME280;6516;35.028;32.372;2023-03-20T10:52:09;99660.94;;;22.81;41.30
12897;BME280;6516;35.028;32.372;2023-03-20T10:54:41;99660.72;;;22.61;41.11
12897;BME280;6516;35.028;32.372;2023-03-20T10:57:15;99664.84;;;22.88;41.93
12897;BME280;6516;35.028;32.372;2023-03-20T10:59:49;99660.53;;;22.75;42.81
12897;BME280;6516;35.028;32.372;2023-03-20T11:02:19;99654.97;;;22.65;42.83
12897;BME280;6516;35.028;32.372;2023-03-20T11:04:48;99650.13;;;22.70;43.36
12897;BME280;6516;35.028;32.372;2023-03-20T11:07:22;99649.91;;;22.73;44.54
12897;BME280;6516;35.028;32.372;2023-03-20T11:10:13;99654.00;;;22.90;43.80
12897;BME280;6516;35.028;32.372;2023-03-20T11:12:43;99647.59;;;23.03;43.67
12897;BME280;6516;35.028;32.372;2023-03-20T11:15:22;99647.03;;;22.87;44.05
12897;BME280;6516;35.028;32.372;2023-03-20T11:17:53;99651.50;;;22.76;42.38
12897;BME280;6516;35.028;32.372;2023-03-20T11:20:23;99651.41;;;22.88;44.05
12897;BME280;6516;35.028;32.372;2023-03-20T11:22:57;99644.06;;;22.79;45.72
12897;BME280;6516;35.028;32.372;2023-03-20T11:25:33;99641.69;;;22.98;43.96
12897;BME280;6516;35.028;32.372;2023-03-20T11:28:24;99644.94;;;23.14;43.09
12897;BME280;6516;35.028;32.372;2023-03-20T11:30:59;99635.47;;;22.98;42.97
12897;BME280;6516;35.028;32.372;2023-03-20T11:33:31;99642.16;;;22.92;43.38
12897;BME280;6516;35.028;32.372;2023-03-20T11:36:09;99646.34;;;22.73;44.04
12897;BME280;6516;35.028;32.372;2023-03-20T11:38:44;99648.88;;;22.63;43.32
12897;BME280;6516;35.028;32.372;2023-03-20T11:41:23;99643.28;;;22.66;43.19
12897;BME280;6516;35.028;32.372;2023-03-20T11:43:52;99648.81;;;22.76;43.08
12897;BME280;6516;35.028;32.372;2023-03-20T11:46:22;99644.03;;;22.68;42.92
12897;BME280;6516;35.028;32.372;2023-03-20T11:49:06;99644.75;;;22.70;43.01
12897;BME280;6516;35.028;32.372;2023-03-20T11:51:42;99650.59;;;22.64;41.81
12897;BME280;6516;35.028;32.372;2023-03-20T11:54:14;99645.72;;;22.69;42.88
12897;BME280;6516;35.028;32.372;2023-03-20T11:56:51;99651.09;;;22.69;42.16
12897;BME280;6516;35.028;32.372;2023-03-20T11:59:21;99651.13;;;22.33;41.70
12897;BME280;6516;35.028;32.372;2023-03-20T12:01:52;99660.72;;;22.25;41.60
12897;BME280;6516;35.028;32.372;2023-03-20T12:04:27;99658.59;;;22.17;39.90
12897;BME280;6516;35.028;32.372;2023-03-20T12:06:58;99651.88;;;22.35;42.21
12897;BME280;6516;35.028;32.372;2023-03-20T12:09:36;99654.44;;;22.49;42.30
12897;BME280;6516;35.028;32.372;2023-03-20T12:12:12;99648.63;;;22.43;40.43
12897;BME280;6516;35.028;32.372;2023-03-20T12:14:52;99650.78;;;22.50;40.72
12897;BME280;6516;35.028;32.372;2023-03-20T12:17:35;99657.25;;;22.23;41.59
12897;BME280;6516;35.028;32.372;2023-03-20T12:20:21;99666.06;;;22.25;41.15
12897;BME280;6516;35.028;32.372;2023-03-20T12:23:04;99668.84;;;22.23;43.22
12897;BME280;6516;35.028;32.372;2023-03-20T12:25:42;99676.34;;;22.31;43.33
12897;BME280;6516;35.028;32.372;2023-03-20T12:28:20;99666.25;;;22.34;43.05
12897;BME280;6516;35.028;32.372;2023-03-20T12:31:02;99670.34;;;22.27;40.93
12897;BME280;6516;35.028;32.372;2023-03-20T12:33:42;99666.34;;;22.45;41.08
12897;BME280;6516;35.028;32.372;2023-03-20T12:36:14;99672.88;;;22.41;39.70
12897;BME280;6516;35.028;32.372;2023-03-20T12:38:43;99671.34;;;22.62;40.70
12897;BME280;6516;35.028;32.372;2023-03-20T12:41:14;99665.50;;;22.68;41.02
12897;BME280;6516;35.028;32.372;2023-03-20T12:46:43;99670.63;;;22.71;43.00
12897;BME280;6516;35.028;32.372;2023-03-20T12:49:23;99676.25;;;22.68;41.40
12897;BME280;6516;35.028;32.372;2023-03-20T12:52:06;99675.94;;;22.60;39.42
12897;BME280;6516;35.028;32.372;2023-03-20T12:55:02;99687.94;;;22.67;39.47
12897;BME280;6516;35.028;32.372;2023-03-20T12:58:00;99681.13;;;22.74;40.42
12897;BME280;6516;35.028;32.372;2023-03-20T13:00:36;99693.72;;;22.74;40.83
12897;BME280;6516;35.028;32.372;2023-03-20T13:03:25;99689.78;;;22.90;41.36
12897;BME280;6516;35.028;32.372;2023-03-20T13:06:05;99688.22;;;22.99;41.39
12897;BME280;6516;35.028;32.372;2023-03-20T13:08:59;99693.00;;;23.06;39.69
12897;BME280;6516;35.028;32.372;2023-03-20T13:11:55;99689.19;;;22.98;40.06
12897;BME280;6516;35.028;32.372;2023-03-20T13:14:35;99692.75;;;22.75;40.72
12897;BME280;6516;35.028;32.372;2023-03-20T13:17:14;99690.09;;;22.86;41.02
12897;BME280;6516;35.028;32.372;2023-03-20T13:19:53;99708.28;;;22.82;41.34
12897;BME280;6516;35.028;32.372;2023-03-20T13:22:36;99707.78;;;22.77;41.15
12897;BME280;6516;35.028;32.372;2023-03-20T13:25:21;99700.63;;;22.89;41.92
12897;BME280;6516;35.028;32.372;2023-03-20T13:28:01;99708.56;;;22.67;40.20
12897;BME280;6516;35.028;32.372;2023-03-20T13:30:37;99714.03;;;22.65;41.40
12897;BME280;6516;35.028;32.372;2023-03-20T13:33:18;99710.72;;;22.62;40.96
12897;BME280;6516;35.028;32.372;2023-03-20T13:36:00;99714.81;;;22.55;42.99
12897;BME280;6516;35.028;32.372;2023-03-20T13:38:34;99712.91;;;22.44;42.56